createdAt,value
2023-04-04T00:00:52.040Z,67.66
2023-04-04T00:03:20.149Z,67.86
2023-04-04T00:05:48.097Z,68.14
2023-04-04T00:08:15.832Z,68.27
2023-04-04T00:10:43.820Z,68.35
2023-04-04T00:13:12.246Z,68.45
2023-04-04T00:15:40.007Z,68.76
2023-04-04T00:18:07.967Z,68.99
2023-04-04T00:20:35.756Z,69.18
2023-04-04T00:23:03.839Z,69.30
2023-04-04T00:25:31.592Z,69.52
2023-04-04T00:28:01.329Z,69.72
2023-04-04T00:30:32.147Z,70.06
2023-04-04T00:33:02.108Z,70.35
2023-04-04T00:35:30.038Z,70.53
2023-04-04T00:37:58.077Z,70.59
2023-04-04T00:40:25.867Z,70.75
2023-04-04T00:42:54.065Z,71.08
2023-04-04T00:45:22.009Z,71.36
2023-04-04T00:47:51.572Z,71.56
2023-04-04T00:50:19.655Z,71.86
2023-04-04T00:52:47.439Z,72.14
2023-04-04T00:55:15.394Z,72.34
2023-04-04T00:57:43.317Z,72.60
2023-04-04T01:00:12.335Z,72.76
2023-04-04T01:02:40.592Z,72.91
2023-04-04T01:05:08.828Z,73.23
2023-04-04T01:07:37.336Z,73.29
2023-04-04T01:10:06.120Z,73.55
2023-04-04T01:12:34.633Z,73.89
2023-04-04T01:15:02.517Z,73.95
2023-04-04T01:17:30.673Z,74.09
2023-04-04T01:20:06.251Z,74.22
2023-04-04T01:22:34.995Z,74.46
2023-04-04T01:25:05.875Z,74.69
2023-04-04T01:27:34.733Z,74.94
2023-04-04T01:30:03.558Z,75.20
2023-04-04T01:32:40.507Z,75.33
2023-04-04T01:35:35.811Z,75.49
2023-04-04T01:38:29.890Z,75.72
2023-04-04T01:41:09.578Z,75.88
2023-04-04T01:43:37.661Z,76.13
2023-04-04T01:46:06.184Z,76.16
2023-04-04T01:48:36.848Z,76.22
2023-04-04T01:51:04.913Z,76.30
2023-04-04T01:53:32.679Z,76.49
2023-04-04T01:56:00.450Z,76.64
2023-04-04T01:58:28.205Z,76.78
2023-04-04T02:00:56.292Z,76.98
2023-04-04T02:03:24.761Z,77.10
2023-04-04T02:05:52.934Z,77.19
2023-04-04T02:08:20.605Z,77.29
2023-04-04T02:10:48.347Z,77.34
2023-04-04T02:13:16.825Z,77.36
2023-04-04T02:15:44.662Z,77.44
2023-04-04T02:18:12.379Z,77.47
2023-04-04T02:20:40.300Z,77.56
2023-04-04T02:23:08.338Z,77.68
2023-04-04T02:25:36.240Z,77.80
2023-04-04T02:28:04.115Z,77.90
2023-04-04T02:30:32.119Z,78.06
2023-04-04T02:33:00.321Z,78.16
2023-04-04T02:35:28.185Z,78.23
2023-04-04T02:37:56.053Z,78.28
2023-04-04T02:40:23.966Z,78.26
2023-04-04T02:42:51.736Z,78.33
2023-04-04T02:45:19.727Z,78.40
2023-04-04T02:47:51.823Z,78.47
2023-04-04T02:50:19.633Z,78.50
2023-04-04T02:52:47.392Z,78.52
2023-04-04T02:55:16.357Z,78.59
2023-04-04T02:57:51.173Z,78.62
2023-04-04T03:00:19.745Z,78.62
2023-04-04T03:02:54.284Z,78.73
2023-04-04T03:05:25.284Z,78.80
2023-04-04T03:07:56.267Z,78.95
2023-04-04T03:10:25.857Z,79.02
2023-04-04T03:12:53.580Z,79.10
2023-04-04T03:15:21.546Z,79.22
2023-04-04T03:17:49.707Z,79.32
2023-04-04T03:20:17.684Z,79.43
2023-04-04T03:22:45.414Z,79.53
2023-04-04T03:25:13.145Z,79.61
2023-04-04T03:27:41.221Z,79.72
2023-04-04T03:30:09.955Z,79.84
2023-04-04T03:32:39.403Z,79.90
2023-04-04T03:35:08.124Z,80.00
2023-04-04T03:37:35.873Z,80.03
2023-04-04T03:40:04.084Z,80.10
2023-04-04T03:42:35.774Z,80.09
2023-04-04T03:45:04.047Z,80.11
2023-04-04T03:47:32.069Z,80.15
2023-04-04T03:49:59.956Z,80.19
2023-04-04T03:52:27.828Z,80.27
2023-04-04T03:54:59.042Z,80.36
2023-04-04T03:57:27.227Z,80.43
2023-04-04T03:59:55.137Z,80.50
2023-04-04T04:02:22.905Z,80.59
2023-04-04T04:04:50.695Z,80.55
2023-04-04T04:07:18.609Z,80.55
2023-04-04T04:09:46.751Z,80.57
2023-04-04T04:12:15.327Z,80.54
2023-04-04T04:14:43.115Z,80.53
2023-04-04T04:17:10.790Z,80.49
2023-04-04T04:19:38.872Z,80.47
2023-04-04T04:22:06.800Z,80.42
2023-04-04T04:24:34.592Z,80.38
2023-04-04T04:27:02.415Z,80.43
2023-04-04T04:29:31.313Z,80.43
2023-04-04T04:31:59.225Z,80.48
2023-04-04T04:34:27.619Z,80.63
2023-04-04T04:36:55.373Z,80.78
2023-04-04T04:39:23.574Z,80.73
2023-04-04T04:41:51.250Z,80.69
2023-04-04T04:44:19.782Z,80.61
2023-04-04T04:46:47.559Z,80.49
2023-04-04T04:49:15.580Z,80.44
2023-04-04T04:51:43.389Z,80.40
2023-04-04T04:54:11.280Z,80.33
2023-04-04T04:56:39.099Z,80.18
2023-04-04T04:59:09.123Z,80.07
2023-04-04T05:01:37.053Z,79.98
2023-04-04T05:04:08.416Z,80.07
2023-04-04T05:06:38.447Z,79.71
2023-04-04T05:09:06.346Z,78.06
2023-04-04T05:11:34.249Z,76.72
2023-04-04T05:14:01.959Z,74.86
2023-04-04T05:16:30.015Z,72.24
2023-04-04T05:18:57.997Z,70.35
2023-04-04T05:21:25.876Z,69.56
2023-04-04T05:23:53.718Z,68.41
2023-04-04T05:26:21.600Z,68.45
2023-04-04T05:28:49.407Z,68.56
2023-04-04T05:31:17.328Z,68.71
2023-04-04T05:33:45.622Z,68.69
2023-04-04T05:36:13.521Z,68.08
2023-04-04T05:38:41.244Z,66.63
2023-04-04T05:41:09.052Z,65.27
2023-04-04T05:43:37.005Z,62.22
2023-04-04T05:46:04.997Z,59.90
2023-04-04T05:48:32.888Z,59.07
2023-04-04T05:51:00.948Z,57.09
2023-04-04T05:53:30.336Z,55.13
2023-04-04T05:55:58.921Z,54.07
2023-04-04T05:58:27.474Z,52.52
2023-04-04T06:00:55.833Z,52.55
2023-04-04T06:03:23.652Z,51.81
2023-04-04T06:05:53.016Z,50.80
2023-04-04T06:14:40.972Z,47.76
2023-04-04T06:17:11.213Z,47.07
2023-04-04T06:19:39.083Z,45.04
2023-04-04T06:22:07.094Z,44.89
2023-04-04T06:24:36.318Z,44.66
2023-04-04T06:27:08.754Z,42.93
2023-04-04T06:29:37.335Z,42.19
2023-04-04T06:32:06.085Z,42.24
2023-04-04T06:34:33.917Z,42.24
2023-04-04T06:37:01.636Z,42.15
2023-04-04T06:39:31.604Z,42.57
2023-04-04T06:41:59.376Z,42.83
2023-04-04T06:44:27.822Z,42.21
2023-04-04T06:46:56.670Z,42.19
2023-04-04T06:49:24.505Z,41.22
2023-04-04T06:51:54.144Z,40.81
2023-04-04T06:54:23.666Z,41.28
2023-04-04T06:56:52.819Z,42.39
2023-04-04T06:59:20.975Z,42.39
2023-04-04T07:01:48.865Z,42.69
2023-04-04T07:04:20.234Z,43.38
2023-04-04T07:06:47.948Z,43.37
2023-04-04T07:09:28.087Z,43.17
2023-04-04T07:11:56.917Z,43.10
2023-04-04T07:14:25.750Z,42.19
2023-04-04T07:16:53.982Z,43.04
2023-04-04T07:19:24.638Z,44.18
2023-04-04T07:21:52.544Z,44.98
2023-04-04T07:24:20.299Z,44.85
2023-04-04T07:26:48.057Z,44.37
2023-04-04T07:29:15.847Z,43.49
2023-04-04T07:31:43.635Z,41.96
2023-04-04T07:34:11.566Z,41.30
2023-04-04T07:36:39.329Z,42.05
2023-04-04T07:39:07.184Z,42.00
2023-04-04T07:41:35.772Z,40.39
2023-04-04T07:44:04.646Z,38.86
2023-04-04T07:46:32.720Z,39.03
2023-04-04T07:49:01.317Z,39.53
2023-04-04T07:51:30.891Z,39.82
2023-04-04T07:53:58.870Z,39.91
2023-04-04T07:56:27.150Z,40.16
2023-04-04T07:58:54.899Z,38.92
2023-04-04T08:01:22.647Z,39.03
2023-04-04T08:03:53.360Z,39.11
2023-04-04T08:06:21.517Z,39.88
2023-04-04T08:08:49.466Z,40.50
2023-04-04T08:11:17.707Z,40.38
2023-04-04T08:13:46.225Z,38.81
2023-04-04T08:16:13.966Z,39.23
2023-04-04T08:18:41.917Z,38.42
2023-04-04T08:21:09.647Z,38.83
2023-04-04T08:23:37.360Z,39.13
2023-04-04T08:26:05.262Z,39.97
2023-04-04T08:28:32.982Z,40.41
2023-04-04T08:31:01.231Z,38.16
2023-04-04T08:33:40.843Z,36.75
2023-04-04T08:36:12.247Z,35.46
2023-04-04T08:38:40.569Z,34.33
2023-04-04T08:41:09.822Z,34.89
2023-04-04T08:43:41.322Z,34.63
2023-04-04T08:46:11.812Z,34.34
2023-04-04T08:48:43.401Z,35.08
2023-04-04T08:51:14.232Z,36.57
2023-04-04T08:53:42.837Z,37.16
2023-04-04T08:56:11.339Z,39.44
2023-04-04T08:58:39.542Z,41.24
2023-04-04T09:01:08.367Z,39.22
2023-04-04T09:03:37.681Z,39.20
2023-04-04T09:06:05.757Z,39.95
2023-04-04T09:08:34.954Z,40.90
2023-04-04T09:11:04.767Z,41.96
2023-04-04T09:13:32.762Z,42.57
2023-04-04T09:16:01.366Z,42.92
2023-04-04T09:18:30.095Z,43.05
2023-04-04T09:20:58.165Z,43.43
2023-04-04T09:23:26.373Z,41.39
2023-04-04T09:28:26.415Z,37.21
2023-04-04T09:30:55.065Z,35.43
2023-04-04T09:33:24.658Z,34.92
2023-04-04T09:35:59.008Z,34.60
2023-04-04T09:38:29.966Z,33.10
2023-04-04T09:40:58.300Z,31.66
2023-04-04T09:43:26.865Z,31.74
2023-04-04T09:45:55.356Z,32.08
2023-04-04T09:48:34.781Z,33.11
2023-04-04T09:51:12.705Z,33.35
2023-04-04T09:53:42.326Z,34.46
2023-04-04T09:56:11.360Z,35.39
2023-04-04T09:58:46.251Z,36.96
2023-04-04T10:01:21.061Z,36.37
2023-04-04T10:03:56.101Z,35.66
2023-04-04T10:06:24.099Z,37.91
2023-04-04T10:08:53.172Z,40.62
2023-04-04T10:11:33.598Z,41.26
2023-04-04T10:14:04.226Z,42.92
2023-04-04T10:16:34.677Z,43.87
2023-04-04T10:19:05.534Z,43.62
2023-04-04T10:21:33.967Z,44.48
2023-04-04T10:24:09.268Z,45.18
2023-04-04T10:26:37.821Z,45.56
2023-04-04T10:29:06.482Z,46.47
2023-04-04T10:31:41.222Z,46.54
2023-04-04T10:34:24.874Z,45.57
2023-04-04T10:37:16.880Z,45.40
2023-04-04T10:40:05.789Z,44.92
2023-04-04T10:42:39.954Z,42.95
2023-04-04T10:45:19.813Z,42.33
2023-04-04T10:47:50.680Z,42.14
2023-04-04T10:50:20.823Z,42.06
2023-04-04T10:52:49.342Z,41.94
2023-04-04T10:55:17.754Z,42.19
2023-04-04T10:57:52.831Z,41.74
2023-04-04T11:00:24.325Z,40.39
2023-04-04T11:03:02.756Z,39.75
2023-04-04T11:05:47.557Z,39.20
2023-04-04T11:08:22.468Z,39.99
2023-04-04T11:10:52.557Z,40.09
2023-04-04T11:13:23.721Z,40.58
2023-04-04T11:16:07.317Z,41.23
2023-04-04T11:18:45.761Z,40.69
2023-04-04T11:21:26.536Z,41.19
2023-04-04T11:23:54.341Z,41.63
2023-04-04T11:26:28.410Z,42.52
2023-04-04T11:29:00.650Z,43.65
2023-04-04T11:31:29.971Z,44.45
2023-04-04T11:34:05.349Z,45.02
2023-04-04T11:36:38.806Z,45.60
2023-04-04T11:39:10.358Z,46.21
2023-04-04T11:41:54.659Z,46.34
2023-04-04T11:44:23.955Z,46.62
2023-04-04T11:47:07.090Z,47.06
2023-04-04T11:49:37.222Z,46.96
2023-04-04T11:52:10.142Z,46.65
2023-04-04T11:54:39.134Z,46.91
2023-04-04T11:57:08.385Z,46.89
2023-04-04T11:59:40.869Z,46.87
2023-04-04T12:02:10.588Z,46.54
2023-04-04T12:04:45.551Z,45.82
2023-04-04T12:07:15.429Z,47.09
2023-04-04T12:09:44.292Z,49.33
2023-04-04T12:12:18.852Z,50.49
2023-04-04T12:14:47.162Z,51.04
2023-04-04T12:17:17.062Z,51.51
2023-04-04T12:19:44.971Z,51.60
2023-04-04T12:22:12.747Z,51.19
2023-04-04T12:24:41.389Z,51.58
2023-04-04T12:27:09.352Z,51.77
2023-04-04T12:29:38.119Z,51.53
2023-04-04T12:32:07.707Z,51.67
2023-04-04T12:34:42.364Z,51.70
2023-04-04T12:37:11.930Z,50.87
2023-04-04T12:39:51.195Z,50.81
2023-04-04T12:42:23.866Z,51.58
2023-04-04T12:44:53.989Z,51.50
2023-04-04T12:47:24.936Z,52.56
2023-04-04T12:49:56.735Z,52.30
2023-04-04T12:52:33.485Z,52.13
2023-04-04T12:55:12.770Z,53.07
2023-04-04T12:57:41.071Z,53.87
2023-04-04T13:00:09.767Z,53.58
2023-04-04T13:02:39.359Z,53.44
2023-04-04T13:05:10.232Z,54.12
2023-04-04T13:07:43.466Z,53.91
2023-04-04T13:10:15.044Z,54.17
2023-04-04T13:13:00.584Z,53.70
2023-04-04T13:15:51.947Z,53.93
2023-04-04T13:18:23.783Z,53.89
2023-04-04T13:20:53.733Z,53.69
2023-04-04T13:23:22.806Z,53.80
2023-04-04T13:25:51.577Z,53.79
2023-04-04T13:28:19.488Z,54.27
2023-04-04T13:30:49.602Z,54.24
2023-04-04T13:33:22.311Z,54.06
2023-04-04T13:35:51.462Z,53.63
2023-04-04T13:38:19.193Z,52.83
2023-04-04T13:40:47.269Z,52.69
2023-04-04T13:43:15.654Z,51.95
2023-04-04T13:45:44.589Z,49.83
2023-04-04T13:48:13.251Z,49.96
2023-04-04T13:50:51.070Z,49.30
2023-04-04T13:53:18.978Z,48.12
2023-04-04T13:56:07.585Z,48.07
2023-04-04T13:58:34.673Z,48.06
2023-04-04T14:01:07.349Z,48.69
2023-04-04T14:03:36.343Z,49.39
2023-04-04T14:06:10.286Z,48.53
2023-04-04T14:08:39.724Z,48.67
2023-04-04T14:11:08.453Z,47.98
2023-04-04T14:13:36.894Z,48.29
2023-04-04T14:16:07.644Z,48.63
2023-04-04T14:31:37.522Z,48.78
2023-04-04T14:34:10.829Z,48.91
2023-04-04T14:36:38.767Z,48.81
2023-04-04T14:39:06.501Z,47.68
2023-04-04T14:41:34.267Z,47.22
2023-04-04T14:44:04.194Z,46.85
2023-04-04T14:46:34.110Z,46.92
2023-04-04T14:49:03.465Z,46.73
2023-04-04T14:51:32.203Z,46.91
2023-04-04T14:54:00.560Z,47.71
2023-04-04T14:56:28.514Z,48.23
2023-04-04T14:58:57.331Z,48.44
2023-04-04T15:01:25.490Z,48.27
2023-04-04T15:03:55.702Z,48.66
2023-04-04T15:06:23.856Z,49.36
2023-04-04T15:08:51.612Z,49.44
2023-04-04T15:11:19.352Z,49.78
2023-04-04T15:13:47.280Z,49.99
2023-04-04T15:16:15.140Z,50.34
2023-04-04T15:18:43.036Z,50.48
2023-04-04T15:21:11.497Z,50.43
2023-04-04T15:23:39.252Z,49.86
2023-04-04T15:26:07.227Z,49.87
2023-04-04T15:28:35.729Z,50.37
2023-04-04T15:31:05.626Z,50.46
2023-04-04T15:33:33.851Z,50.12
2023-04-04T15:36:01.778Z,49.89
2023-04-04T15:38:29.586Z,50.09
2023-04-04T15:40:58.141Z,50.28
2023-04-04T15:43:25.820Z,49.90
2023-04-04T15:45:53.858Z,49.34
2023-04-04T15:48:22.571Z,49.59
2023-04-04T15:50:51.342Z,50.61
2023-04-04T15:53:19.367Z,50.79
2023-04-04T15:55:47.234Z,50.92
2023-04-04T15:58:15.090Z,51.06
2023-04-04T16:00:46.300Z,50.51
2023-04-04T16:03:15.318Z,50.28
2023-04-04T16:05:43.154Z,50.16
2023-04-04T16:08:12.258Z,50.28
2023-04-04T16:10:40.562Z,50.07
2023-04-04T16:13:08.718Z,49.86
2023-04-04T16:15:36.838Z,49.76
2023-04-04T16:18:04.878Z,51.04
2023-04-04T16:20:32.713Z,51.51
2023-04-04T16:23:00.896Z,51.43
2023-04-04T16:25:29.450Z,51.64
2023-04-04T16:27:57.289Z,51.91
2023-04-04T16:30:25.223Z,52.23
2023-04-04T16:32:53.176Z,52.43
2023-04-04T16:35:21.155Z,52.41
2023-04-04T16:37:48.911Z,52.11
2023-04-04T16:40:17.968Z,52.34
2023-04-04T16:42:51.700Z,52.11
2023-04-04T16:45:19.653Z,52.35
2023-04-04T16:47:47.376Z,51.93
2023-04-04T16:50:15.365Z,52.10
2023-04-04T16:52:43.211Z,52.22
2023-04-04T16:55:11.094Z,52.66
2023-04-04T16:57:38.955Z,52.85
2023-04-04T17:00:10.135Z,52.98
2023-04-04T17:02:45.655Z,53.17
2023-04-04T17:05:14.935Z,53.41
2023-04-04T17:07:43.405Z,53.43
2023-04-04T17:10:12.419Z,53.44
2023-04-04T17:12:40.722Z,53.91
2023-04-04T17:15:10.201Z,53.91
2023-04-04T17:17:38.244Z,53.36
2023-04-04T17:20:07.438Z,54.15
2023-04-04T17:22:36.201Z,54.24
2023-04-04T17:25:04.662Z,54.53
2023-04-04T17:27:33.230Z,54.48
2023-04-04T17:30:02.444Z,54.59
2023-04-04T17:32:31.859Z,54.72
2023-04-04T17:35:00.358Z,55.00
2023-04-04T17:37:29.141Z,55.03
2023-04-04T17:39:59.598Z,55.19
2023-04-04T17:42:27.568Z,55.21
2023-04-04T17:44:55.354Z,54.96
2023-04-04T17:47:23.370Z,55.16
2023-04-04T17:49:52.296Z,55.25
2023-04-04T17:52:20.340Z,55.45
2023-04-04T17:54:48.752Z,55.66
2023-04-04T17:57:16.808Z,55.80
2023-04-04T17:59:44.636Z,55.86
2023-04-04T18:02:12.322Z,56.02
2023-04-04T18:04:40.559Z,56.05
2023-04-04T18:07:09.039Z,55.76
2023-04-04T18:09:37.036Z,55.58
2023-04-04T18:12:05.587Z,55.68
2023-04-04T18:14:33.670Z,55.75
2023-04-04T18:17:01.881Z,55.72
2023-04-04T18:19:30.370Z,55.99
2023-04-04T18:22:00.477Z,56.59
2023-04-04T18:24:28.604Z,57.41
2023-04-04T18:26:56.659Z,58.52
2023-04-04T18:29:26.818Z,59.34
2023-04-04T18:31:54.992Z,59.93
2023-04-04T18:34:23.452Z,60.26
2023-04-04T18:36:51.314Z,60.53
2023-04-04T18:39:19.716Z,60.74
2023-04-04T18:41:48.072Z,61.06
2023-04-04T18:44:16.397Z,61.34
2023-04-04T18:46:44.538Z,61.66
2023-04-04T18:49:12.512Z,62.01
2023-04-04T18:51:40.196Z,62.32
2023-04-04T18:54:08.461Z,62.69
2023-04-04T18:56:38.805Z,62.89
2023-04-04T18:59:07.324Z,63.35
2023-04-04T19:01:36.016Z,63.67
2023-04-04T19:04:04.564Z,63.83
2023-04-04T19:06:33.430Z,64.13
2023-04-04T19:09:04.278Z,64.25
2023-04-04T19:11:32.443Z,64.19
2023-04-04T19:14:00.589Z,64.24
2023-04-04T19:16:28.714Z,64.26
2023-04-04T19:18:56.826Z,64.39
2023-04-04T19:21:25.513Z,64.43
2023-04-04T19:23:53.463Z,64.78
2023-04-04T19:26:21.502Z,65.61
2023-04-04T19:28:50.602Z,65.39
2023-04-04T19:31:24.147Z,65.74
2023-04-04T19:33:55.924Z,65.48
2023-04-04T19:36:24.615Z,65.70
2023-04-04T19:38:54.659Z,65.86
2023-04-04T19:41:36.266Z,66.18
2023-04-04T19:44:07.624Z,66.63
2023-04-04T19:46:35.637Z,66.96
2023-04-04T19:49:14.207Z,66.92
2023-04-04T19:51:42.748Z,67.65
2023-04-04T19:54:15.080Z,67.50
2023-04-04T19:56:46.377Z,67.33
2023-04-04T19:59:59.460Z,67.78
2023-04-04T20:02:27.409Z,68.29
2023-04-04T20:04:55.582Z,68.05
2023-04-04T20:07:24.444Z,67.60
2023-04-04T20:09:52.979Z,67.46
2023-04-04T20:12:25.880Z,67.48
2023-04-04T20:14:58.976Z,67.49
2023-04-04T20:17:26.990Z,67.65
2023-04-04T20:19:54.781Z,67.74
2023-04-04T20:22:23.098Z,67.87
2023-04-04T20:24:53.035Z,68.01
2023-04-04T20:27:24.503Z,68.22
2023-04-04T20:29:54.096Z,68.41
2023-04-04T20:32:21.901Z,68.48
2023-04-04T20:34:50.700Z,68.47
2023-04-04T20:37:26.562Z,68.68
2023-04-04T20:39:54.526Z,68.79
2023-04-04T20:42:31.139Z,68.88
2023-04-04T20:45:11.782Z,69.05
2023-04-04T20:47:44.682Z,69.22
2023-04-04T20:50:19.197Z,69.37
2023-04-04T20:52:58.776Z,69.57
2023-04-04T20:55:31.690Z,69.78
2023-04-04T20:58:07.541Z,69.97
2023-04-04T21:00:40.047Z,70.23
2023-04-04T21:03:29.322Z,70.39
2023-04-04T21:06:01.416Z,70.51
2023-04-04T21:08:41.388Z,70.57
2023-04-04T21:11:11.141Z,70.80
2023-04-04T21:13:40.881Z,71.02
2023-04-04T21:16:10.599Z,71.30
2023-04-04T21:18:40.073Z,71.57
2023-04-04T21:21:16.543Z,71.77
2023-04-04T21:23:55.877Z,71.94
2023-04-04T21:26:35.533Z,72.12
2023-04-04T21:29:16.751Z,72.29
2023-04-04T21:31:44.633Z,72.47
2023-04-04T21:34:15.771Z,72.58
2023-04-04T21:36:44.998Z,72.67
2023-04-04T21:39:14.619Z,72.76
2023-04-04T21:41:45.418Z,72.87
2023-04-04T21:44:13.821Z,72.98
2023-04-04T21:46:42.769Z,73.07
2023-04-04T21:49:11.422Z,73.12
2023-04-04T21:51:39.251Z,73.19
2023-04-04T21:54:07.582Z,73.33
2023-04-04T21:56:35.604Z,73.46
2023-04-04T21:59:05.471Z,73.60
2023-04-04T22:01:33.680Z,73.66
2023-04-04T22:04:02.054Z,73.75
2023-04-04T22:06:30.980Z,73.86
2023-04-04T22:09:01.920Z,73.99
2023-04-04T22:11:30.298Z,74.13
2023-04-04T22:14:08.039Z,74.38
2023-04-04T22:16:40.226Z,74.60
2023-04-04T22:19:11.595Z,74.79
2023-04-04T22:21:46.797Z,74.90
2023-04-04T22:24:17.920Z,75.04
2023-04-04T22:26:46.339Z,75.17
2023-04-04T22:29:14.339Z,75.34
2023-04-04T22:31:44.416Z,75.50
2023-04-04T22:34:14.761Z,75.67
2023-04-04T22:36:44.177Z,75.86
2023-04-04T22:39:12.150Z,75.97
2023-04-04T22:41:39.899Z,76.13
2023-04-04T22:44:07.684Z,76.32
2023-04-04T22:46:35.470Z,76.54
2023-04-04T22:49:07.105Z,76.70
2023-04-04T22:51:44.104Z,76.81
2023-04-04T22:54:14.687Z,76.97
2023-04-04T22:56:42.481Z,77.09
2023-04-04T22:59:11.563Z,77.30
2023-04-04T23:01:39.766Z,77.42
2023-04-04T23:04:08.113Z,77.47
2023-04-04T23:06:36.416Z,77.53
2023-04-04T23:09:04.336Z,77.66
2023-04-04T23:11:32.133Z,77.74
2023-04-04T23:14:00.729Z,77.86
2023-04-04T23:16:28.867Z,78.04
2023-04-04T23:18:57.264Z,78.13
2023-04-04T23:21:25.248Z,78.25
2023-04-04T23:23:53.029Z,78.37
2023-04-04T23:26:20.789Z,78.51
2023-04-04T23:28:51.056Z,78.61
2023-04-04T23:31:20.561Z,78.77
2023-04-04T23:33:48.582Z,78.91
2023-04-04T23:36:16.519Z,79.00
2023-04-04T23:38:45.057Z,79.10
2023-04-04T23:41:12.888Z,79.22
2023-04-04T23:43:42.868Z,79.25
2023-04-04T23:46:14.153Z,79.28
2023-04-04T23:48:42.153Z,79.30
2023-04-04T23:51:10.960Z,79.34
2023-04-04T23:53:39.463Z,79.36
2023-04-04T23:56:07.778Z,79.49
2023-04-04T23:58:37.331Z,79.60
